Time;durP1;ratioP1;P1;durP2;ratioP2;P2;SDS_P1;SDS_P2;PMS_P1;PMS_P2;Temp;Humidity;BMP_temperature;BMP_pressure;BME280_temperature;BME280_humidity;BME280_pressure;Samples;Min_cycle;Max_cycle;Signal;HPM_P1;HPM_P2
2021/01/17 00:01:59;;;;;;;14.50;7.97;;;;;;;1.57;44.33;101253.88;4995876;28;20042;-77
2021/01/17 00:04:26;;;;;;;13.50;7.28;;;;;;;1.57;44.94;101239.53;4995947;28;20050;-77
2021/01/17 00:06:54;;;;;;;14.55;7.70;;;;;;;1.56;44.42;101237.81;5000968;28;20046;-77
2021/01/17 00:09:22;;;;;;;12.68;7.57;;;;;;;1.56;44.62;101237.81;4995638;28;20046;-77
2021/01/17 00:11:49;;;;;;;11.50;6.35;;;;;;;1.55;44.70;101230.66;4994806;28;20049;-78
2021/01/17 00:14:18;;;;;;;14.98;7.55;;;;;;;1.54;45.12;101235.16;5010832;28;20493;-77
2021/01/17 00:16:45;;;;;;;13.85;7.55;;;;;;;1.54;44.48;101228.91;4994892;28;20041;-78
2021/01/17 00:19:13;;;;;;;14.52;7.43;;;;;;;1.53;44.64;101219.94;4991490;28;20042;-77
2021/01/17 00:21:44;;;;;;;13.80;7.13;;;;;;;1.54;44.93;101213.59;4995619;28;20042;-77
2021/01/17 00:24:12;;;;;;;14.52;7.78;;;;;;;1.51;45.00;101213.72;4994916;28;20513;-77
2021/01/17 00:26:39;;;;;;;14.98;7.07;;;;;;;1.51;45.05;101211.03;4994589;28;20128;-77
2021/01/17 00:29:06;;;;;;;15.57;7.80;;;;;;;1.51;44.83;101208.31;4994871;28;20064;-77
2021/01/17 00:31:35;;;;;;;15.45;7.57;;;;;;;1.52;45.18;101202.00;4995687;28;20062;-76
2021/01/17 00:34:06;;;;;;;14.33;7.30;;;;;;;1.49;45.17;101203.94;5018813;28;20038;-77
2021/01/17 00:36:38;;;;;;;14.32;6.85;;;;;;;1.53;45.33;101197.47;5001855;28;20041;-76
2021/01/17 00:39:07;;;;;;;13.20;6.97;;;;;;;1.51;44.95;101197.53;4976697;28;20053;-77
2021/01/17 00:41:35;;;;;;;14.68;7.80;;;;;;;1.52;45.23;101195.72;4994198;28;20046;-77
2021/01/17 00:44:04;;;;;;;12.30;6.63;;;;;;;1.53;45.26;101200.19;4995753;28;20050;-77
2021/01/17 00:46:39;;;;;;;13.30;7.68;;;;;;;1.55;45.91;101196.47;4994004;28;20054;-77
2021/01/17 00:49:07;;;;;;;16.17;8.00;;;;;;;1.53;44.92;101197.47;4994866;28;20046;-77
2021/01/17 00:51:41;;;;;;;14.15;6.88;;;;;;;1.55;45.30;101201.88;4993308;28;20153;-77
2021/01/17 00:54:09;;;;;;;13.45;6.72;;;;;;;1.53;45.27;101195.66;4994164;28;20050;-77
2021/01/17 00:56:38;;;;;;;13.18;7.10;;;;;;;1.54;45.12;101196.53;4994914;28;20046;-77
2021/01/17 00:59:06;;;;;;;15.75;7.95;;;;;;;1.55;45.05;101196.47;4993328;28;20758;-77
2021/01/17 01:01:37;;;;;;;12.35;7.43;;;;;;;1.58;45.72;101196.31;4994485;28;20566;-77
2021/01/17 01:04:06;;;;;;;14.40;7.40;;;;;;;1.58;45.33;101195.44;4994438;28;20482;-78
2021/01/17 01:06:34;;;;;;;15.93;7.68;;;;;;;1.59;45.33;101199.91;5002783;28;20050;-77
2021/01/17 01:09:06;;;;;;;13.90;7.80;;;;;;;1.60;45.40;101204.34;4993973;28;20073;-77
2021/01/17 01:11:33;;;;;;;14.70;7.82;;;;;;;1.60;45.47;101194.44;4993757;28;20053;-77
2021/01/17 01:14:00;;;;;;;13.80;6.97;;;;;;;1.61;45.36;101190.81;4995096;28;20101;-77
2021/01/17 01:16:28;;;;;;;15.93;8.00;;;;;;;1.62;45.32;101197.09;4993646;28;20042;-77
2021/01/17 01:18:55;;;;;;;14.43;7.28;;;;;;;1.62;45.45;101189.00;4994564;28;20073;-77
2021/01/17 01:21:28;;;;;;;13.82;7.38;;;;;;;1.64;45.75;101200.59;4993979;28;20481;-77
2021/01/17 01:23:55;;;;;;;12.65;7.40;;;;;;;1.61;45.13;101193.50;4992561;28;20044;-77
2021/01/17 01:26:23;;;;;;;13.07;7.30;;;;;;;1.63;45.44;101194.31;4994558;28;20045;-76
2021/01/17 01:28:53;;;;;;;15.40;7.50;;;;;;;1.66;45.08;101198.69;4976767;28;20057;-77
2021/01/17 01:31:21;;;;;;;13.18;7.20;;;;;;;1.67;45.42;101204.00;4994504;28;20042;-77
2021/01/17 01:33:50;;;;;;;13.82;7.90;;;;;;;1.67;45.21;101204.00;4993241;28;20473;-77
2021/01/17 01:36:18;;;;;;;13.55;7.30;;;;;;;1.69;45.31;101198.56;4992775;28;20045;-77
2021/01/17 01:38:46;;;;;;;15.82;8.27;;;;;;;1.69;45.25;101191.34;4992589;28;20129;-77
2021/01/17 01:41:14;;;;;;;13.70;8.07;;;;;;;1.70;45.53;101195.81;4989851;28;20077;-78
2021/01/17 01:43:42;;;;;;;14.80;7.95;;;;;;;1.70;45.45;101192.22;4994397;28;20490;-78
2021/01/17 01:46:13;;;;;;;14.00;7.75;;;;;;;1.74;45.55;101205.50;4976098;28;20046;-77
2021/01/17 01:48:42;;;;;;;14.90;8.00;;;;;;;1.72;45.60;101209.22;4974188;28;20491;-78
2021/01/17 01:51:11;;;;;;;13.40;7.63;;;;;;;1.72;45.44;101201.97;4990805;28;20077;-77
2021/01/17 01:53:38;;;;;;;16.63;7.78;;;;;;;1.73;45.28;101194.78;4992888;28;20046;-77
2021/01/17 01:56:07;;;;;;;15.27;8.45;;;;;;;1.76;45.44;101197.34;4994149;28;20054;-77
2021/01/17 01:58:37;;;;;;;14.73;7.82;;;;;;;1.76;45.18;101198.22;4992558;28;20074;-77
2021/01/17 02:01:06;;;;;;;13.82;7.78;;;;;;;1.76;45.22;101198.22;4992600;28;20054;-77
2021/01/17 02:03:33;;;;;;;15.90;8.85;;;;;;;1.75;45.21;101188.38;4992698;28;20509;-78
2021/01/17 02:06:01;;;;;;;15.40;7.90;;;;;;;1.76;45.32;101186.56;4993980;28;20089;-77
2021/01/17 02:09:03;;;;;;;15.05;8.45;;;;;;;1.76;45.72;101182.03;5010602;28;20068;-77
2021/01/17 02:11:57;;;;;;;14.07;7.65;;;;;;;1.75;45.75;101188.38;5028791;28;20096;-77
2021/01/17 02:14:41;;;;;;;16.98;8.10;;;;;;;1.76;45.44;101187.44;4994217;28;20508;-78
2021/01/17 02:17:12;;;;;;;15.00;8.43;;;;;;;1.75;45.40;101182.09;4992298;28;20047;-77
2021/01/17 02:20:15;;;;;;;15.95;8.48;;;;;;;1.76;45.80;101173.94;4992765;28;20559;-77
2021/01/17 02:22:50;;;;;;;15.90;8.10;;;;;;;1.76;45.95;101189.25;4950836;28;20061;-77
2021/01/17 02:25:20;;;;;;;15.68;8.25;;;;;;;1.76;45.44;101189.25;4976752;28;20041;-77
2021/01/17 02:27:55;;;;;;;14.60;7.88;;;;;;;1.77;45.72;101188.31;4993772;28;20509;-78
2021/01/17 02:30:25;;;;;;;15.85;8.27;;;;;;;1.78;45.56;101190.06;4988737;28;20129;-78
2021/01/17 02:32:56;;;;;;;16.05;8.40;;;;;;;1.80;45.57;101185.50;4989361;28;20494;-78
2021/01/17 02:35:25;;;;;;;14.82;8.00;;;;;;;1.79;45.60;101190.00;5005320;28;20492;-78
2021/01/17 02:38:20;;;;;;;17.17;8.50;;;;;;;1.83;45.99;101192.53;4999776;28;20046;-78
2021/01/17 02:41:00;;;;;;;15.55;8.00;;;;;;;1.82;46.00;101182.69;4987965;28;20479;-77
2021/01/17 02:43:28;;;;;;;14.23;8.15;;;;;;;1.80;45.44;101182.78;4996340;28;20065;-77
2021/01/17 02:45:55;;;;;;;15.05;7.90;;;;;;;1.81;45.52;101178.28;4997493;28;20051;-77
2021/01/17 02:48:22;;;;;;;16.50;8.65;;;;;;;1.82;45.59;101175.47;4996145;28;20042;-77
2021/01/17 02:50:50;;;;;;;15.18;7.88;;;;;;;1.82;45.40;101175.47;4996515;28;20050;-77
2021/01/17 02:53:25;;;;;;;15.18;8.05;;;;;;;1.84;45.93;101176.28;4996431;28;20355;-77
2021/01/17 02:55:55;;;;;;;15.88;8.50;;;;;;;1.83;45.61;101174.53;4997238;28;20482;-77
2021/01/17 02:58:25;;;;;;;17.60;8.30;;;;;;;1.84;45.47;101180.81;4997644;28;20125;-77
2021/01/17 03:00:55;;;;;;;15.75;8.65;;;;;;;1.85;45.34;101174.47;4994658;28;20442;-77
2021/01/17 03:03:35;;;;;;;19.17;8.65;;;;;;;1.86;45.68;101177.13;4995653;28;20512;-77
2021/01/17 03:06:06;;;;;;;15.18;8.13;;;;;;;1.84;45.57;101170.03;5004233;28;20042;-77
2021/01/17 03:08:34;;;;;;;16.60;8.20;;;;;;;1.86;45.68;101178.94;5029577;28;20511;-77
2021/01/17 03:11:02;;;;;;;15.20;8.10;;;;;;;1.86;45.51;101177.13;5012914;28;20046;-77
2021/01/17 03:13:31;;;;;;;17.27;8.75;;;;;;;1.85;45.72;101177.19;5001317;28;20210;-78
2021/01/17 03:15:59;;;;;;;17.38;8.90;;;;;;;1.87;45.68;101175.28;4995745;28;20105;-78
2021/01/17 03:18:28;;;;;;;16.48;7.80;;;;;;;1.87;45.35;101180.69;4995684;28;20038;-78
2021/01/17 03:20:55;;;;;;;14.85;8.07;;;;;;;1.87;45.94;101169.91;4996170;28;20042;-77
2021/01/17 03:23:22;;;;;;;16.42;8.65;;;;;;;1.88;45.52;101171.66;4996466;28;20046;-77
2021/01/17 03:25:49;;;;;;;16.15;9.13;;;;;;;1.86;45.48;101169.03;4995421;28;20057;-78
2021/01/17 03:28:17;;;;;;;15.25;7.68;;;;;;;1.89;45.87;101171.56;4995533;28;20390;-77
2021/01/17 03:30:45;;;;;;;17.08;8.40;;;;;;;1.88;45.89;101171.66;4995993;28;20054;-76
2021/01/17 03:33:12;;;;;;;14.25;7.50;;;;;;;1.89;45.52;101181.50;5012102;28;20050;-77
2021/01/17 03:35:39;;;;;;;15.10;8.40;;;;;;;1.88;45.57;101174.34;5003229;28;20085;-77
2021/01/17 03:38:06;;;;;;;15.38;8.20;;;;;;;1.88;45.48;101171.66;4996145;28;20501;-77
2021/01/17 03:40:33;;;;;;;16.27;8.43;;;;;;;1.89;45.64;101170.72;4994399;28;20121;-77
2021/01/17 03:43:01;;;;;;;16.65;8.57;;;;;;;1.89;45.91;101165.31;4995212;28;20061;-77
2021/01/17 03:45:29;;;;;;;14.50;8.15;;;;;;;1.89;45.62;101160.75;5006895;28;20450;-77
2021/01/17 03:47:56;;;;;;;17.50;9.05;;;;;;;1.88;45.57;101156.34;4975990;28;20498;-77
2021/01/17 03:50:24;;;;;;;17.10;8.32;;;;;;;1.88;45.63;101155.47;4987432;28;20125;-78
2021/01/17 03:52:51;;;;;;;16.48;8.60;;;;;;;1.86;45.79;101168.16;4995224;28;20054;-77
2021/01/17 03:55:18;;;;;;;17.73;9.82;;;;;;;1.85;45.56;101169.97;5011048;28;20050;-77
2021/01/17 03:57:45;;;;;;;16.73;9.13;;;;;;;1.84;45.46;101176.28;5011665;28;20404;-77
2021/01/17 04:00:13;;;;;;;17.45;9.27;;;;;;;1.84;45.27;101175.41;4995691;28;20070;-77
2021/01/17 04:02:41;;;;;;;16.40;8.75;;;;;;;1.82;45.40;101174.59;4995796;28;20038;-77
2021/01/17 04:05:10;;;;;;;15.98;8.75;;;;;;;1.81;45.50;101172.88;5017073;28;20116;-77
2021/01/17 04:07:37;;;;;;;17.42;8.90;;;;;;;1.78;45.67;101180.16;5007656;28;20560;-77
2021/01/17 04:10:05;;;;;;;15.35;8.35;;;;;;;1.76;45.49;101173.94;5006297;28;20100;-77
2021/01/17 04:12:39;;;;;;;16.38;8.35;;;;;;;1.73;45.54;101170.50;4995073;28;20089;-77
2021/01/17 04:15:08;;;;;;;15.75;7.85;;;;;;;1.73;45.79;101173.19;4994743;28;20097;-77
2021/01/17 04:17:56;;;;;;;17.35;8.75;;;;;;;1.71;45.35;101169.72;4995347;28;20073;-77
2021/01/17 04:20:43;;;;;;;17.90;8.57;;;;;;;1.68;45.78;101175.22;4995137;28;20054;-77
2021/01/17 04:23:30;;;;;;;18.05;8.98;;;;;;;1.66;45.83;101164.50;4995385;28;20058;-77
2021/01/17 04:26:18;;;;;;;13.18;8.05;;;;;;;1.66;45.70;101169.91;4995466;28;20058;-77
2021/01/17 04:29:05;;;;;;;17.15;8.85;;;;;;;1.66;45.50;101169.03;4994604;28;20050;-77
2021/01/17 04:31:53;;;;;;;15.88;8.23;;;;;;;1.65;45.91;101164.56;4988499;28;20053;-77
2021/01/17 04:34:25;;;;;;;18.73;9.02;;;;;;;1.66;45.57;101164.50;4975384;28;20054;-77
2021/01/17 04:36:53;;;;;;;19.75;9.60;;;;;;;1.65;45.83;101168.16;5013123;28;20061;-77
2021/01/17 04:39:24;;;;;;;16.73;8.82;;;;;;;1.65;45.60;101164.56;5037885;28;20042;-77
2021/01/17 04:41:57;;;;;;;15.40;8.35;;;;;;;1.66;46.03;101163.63;5014966;28;20041;-77
2021/01/17 04:44:33;;;;;;;16.80;9.15;;;;;;;1.65;46.08;101161.88;4995723;28;20429;-77
2021/01/17 04:47:22;;;;;;;19.65;9.15;;;;;;;1.62;45.80;101162.91;5005565;28;20053;-77
2021/01/17 04:50:12;;;;;;;18.58;9.10;;;;;;;1.63;45.84;101159.28;4994387;28;20042;-78
2021/01/17 04:53:04;;;;;;;15.18;8.15;;;;;;;1.62;45.91;101168.31;4995309;28;20043;-77
2021/01/17 04:55:52;;;;;;;16.58;8.43;;;;;;;1.62;45.67;101162.03;4975448;28;20058;-78
2021/01/17 04:58:44;;;;;;;17.10;8.27;;;;;;;1.63;45.83;101166.47;4974677;28;20062;-77
2021/01/17 05:01:50;;;;;;;15.98;8.02;;;;;;;1.62;46.23;101160.22;4993338;28;20050;-78
2021/01/17 05:05:21;;;;;;;17.35;8.60;;;;;;;1.60;46.36;101170.19;4972439;28;20134;-77
2021/01/17 05:11:04;;;;;;;18.83;9.35;;;;;;;1.59;45.93;101181.91;5128094;27;20345;-69
2021/01/17 05:14:10;;;;;;;19.70;8.85;;;;;;;1.61;46.44;101179.16;5127333;28;20043;-69
2021/01/17 05:16:57;;;;;;;16.60;7.95;;;;;;;1.57;46.28;101183.78;5116140;28;20528;-69
2021/01/17 05:19:47;;;;;;;16.88;8.63;;;;;;;1.59;45.76;101172.94;5108115;28;20141;-69
2021/01/17 05:22:34;;;;;;;17.70;8.90;;;;;;;1.59;46.04;101172.94;5124454;28;20080;-69
2021/01/17 05:25:25;;;;;;;18.60;8.82;;;;;;;1.60;46.02;101161.22;5098942;28;20075;-70
2021/01/17 05:28:12;;;;;;;16.75;8.55;;;;;;;1.60;46.11;101161.22;5107578;28;20499;-69
2021/01/17 05:30:59;;;;;;;18.20;8.90;;;;;;;1.60;46.08;101158.50;5107676;28;20068;-70
2021/01/17 05:33:47;;;;;;;17.45;8.68;;;;;;;1.59;45.67;101154.94;5107838;28;20145;-69
2021/01/17 05:36:33;;;;;;;18.40;8.73;;;;;;;1.60;46.14;101164.78;5107472;28;20051;-70
2021/01/17 05:39:21;;;;;;;15.27;7.47;;;;;;;1.59;45.92;101163.03;5107123;28;20172;-69
2021/01/17 05:42:08;;;;;;;17.48;8.57;;;;;;;1.59;46.02;101163.03;5106312;28;20164;-69
2021/01/17 05:44:57;;;;;;;17.73;9.30;;;;;;;1.59;46.26;101164.84;5107363;28;20122;-70
2021/01/17 05:47:53;;;;;;;16.85;8.57;;;;;;;1.59;46.41;101160.34;5106096;28;20549;-70
2021/01/17 05:50:45;;;;;;;17.73;8.93;;;;;;;1.59;46.54;101175.63;5125570;28;20051;-69
2021/01/17 05:53:27;;;;;;;19.77;9.30;;;;;;;1.57;46.11;101178.41;5106356;28;20050;-70
2021/01/17 05:56:15;;;;;;;19.85;8.90;;;;;;;1.57;46.04;101174.81;5127417;27;20043;-69
2021/01/17 05:59:03;;;;;;;17.80;8.07;;;;;;;1.58;45.84;101171.19;5127377;27;20522;-69
2021/01/17 06:01:50;;;;;;;18.17;8.77;;;;;;;1.58;45.88;101174.75;5127593;28;20081;-69
2021/01/17 06:04:40;;;;;;;16.75;8.43;;;;;;;1.59;46.34;101172.94;5086004;28;20497;-69
2021/01/17 06:07:29;;;;;;;18.23;8.90;;;;;;;1.59;46.26;101173.81;5086497;28;20056;-69
2021/01/17 06:10:22;;;;;;;18.77;9.07;;;;;;;1.61;46.63;101171.06;5085204;28;20093;-69
2021/01/17 06:12:58;;;;;;;20.70;9.75;;;;;;;1.60;46.29;101177.41;5069359;28;20616;-69
2021/01/17 06:15:45;;;;;;;20.50;9.65;;;;;;;1.59;45.98;101175.63;5097959;28;20129;-69
2021/01/17 06:18:33;;;;;;;20.48;9.25;;;;;;;1.59;46.02;101178.34;5091581;28;20071;-69
2021/01/17 06:21:20;;;;;;;18.77;9.35;;;;;;;1.57;46.20;101178.41;5095139;28;20044;-69
2021/01/17 06:24:09;;;;;;;18.45;8.52;;;;;;;1.58;45.97;101184.66;5083883;28;20092;-69
2021/01/17 06:26:56;;;;;;;18.27;8.45;;;;;;;1.57;46.11;101181.09;5113645;28;20070;-69
2021/01/17 06:29:44;;;;;;;15.25;7.22;;;;;;;1.58;46.39;101181.97;5113121;28;20044;-70
2021/01/17 06:32:31;;;;;;;17.90;8.55;;;;;;;1.57;46.16;101188.31;5102348;28;20079;-70
2021/01/17 06:35:30;;;;;;;20.48;9.75;;;;;;;1.59;46.65;101190.00;5092965;28;20102;-69
2021/01/17 06:38:18;;;;;;;16.38;8.65;;;;;;;1.57;46.38;101189.19;5092001;28;20051;-70
2021/01/17 06:41:05;;;;;;;18.80;8.98;;;;;;;1.59;46.29;101191.81;5076376;28;20497;-69
2021/01/17 06:43:53;;;;;;;17.58;9.23;;;;;;;1.60;46.57;101190.88;5089340;28;20056;-69
2021/01/17 06:46:43;;;;;;;19.13;8.73;;;;;;;1.60;46.15;101188.19;5092680;28;20048;-70
2021/01/17 06:49:32;;;;;;;21.77;9.15;;;;;;;1.59;46.17;101190.00;5092631;28;20493;-69
2021/01/17 06:52:21;;;;;;;18.15;8.60;;;;;;;1.59;46.32;101181.91;5092809;28;20463;-69
2021/01/17 06:55:19;;;;;;;14.90;7.55;;;;;;;1.60;46.85;101197.16;5099976;28;20130;-70
2021/01/17 06:58:15;;;;;;;17.95;8.32;;;;;;;1.61;46.57;101198.03;5105661;28;20052;-69
2021/01/17 07:01:04;;;;;;;18.25;8.93;;;;;;;1.58;46.69;101196.31;5092390;28;20135;-69
2021/01/17 07:04:10;;;;;;;17.88;8.77;;;;;;;1.59;46.57;101197.22;5091302;28;20059;-69
2021/01/17 07:07:31;;;;;;;14.38;7.72;;;;;;;1.57;47.41;101197.28;5092216;28;20509;-70
2021/01/17 07:10:21;;;;;;;18.88;9.25;;;;;;;1.56;46.43;101195.50;5092088;28;20127;-70
2021/01/17 07:13:09;;;;;;;17.35;8.98;;;;;;;1.57;45.79;101201.78;5092619;28;20036;-70
2021/01/17 07:16:00;;;;;;;17.70;8.77;;;;;;;1.56;46.24;101203.59;5091999;28;20040;-70
2021/01/17 07:18:52;;;;;;;19.98;8.88;;;;;;;1.58;46.61;101212.50;5092405;28;20062;-68
2021/01/17 07:21:41;;;;;;;17.33;8.45;;;;;;;1.57;46.39;101216.13;5091808;28;20044;-70
2021/01/17 07:24:30;;;;;;;17.10;8.45;;;;;;;1.58;46.39;101223.28;5088296;28;20127;-70
2021/01/17 07:27:25;;;;;;;18.63;8.93;;;;;;;1.60;47.04;101234.00;5094489;28;20497;-69
2021/01/17 07:30:18;;;;;;;18.85;8.95;;;;;;;1.58;47.01;101231.38;5091602;28;20044;-69
2021/01/17 07:32:55;;;;;;;19.40;8.93;;;;;;;1.58;46.67;101234.06;5083269;28;20039;-69
2021/01/17 07:35:44;;;;;;;16.58;8.15;;;;;;;1.61;46.63;101235.78;5092145;28;20657;-69
2021/01/17 07:38:32;;;;;;;19.55;8.98;;;;;;;1.63;46.58;101242.88;5081121;28;20048;-69
2021/01/17 07:41:28;;;;;;;16.48;8.43;;;;;;;1.66;47.07;101247.22;5091635;28;20063;-70
2021/01/17 07:44:19;;;;;;;18.20;9.10;;;;;;;1.66;46.81;101241.84;5075576;28;20105;-69
2021/01/17 07:47:04;;;;;;;17.27;8.68;;;;;;;1.69;47.10;101245.28;5091625;28;20044;-69
2021/01/17 07:49:52;;;;;;;17.15;8.45;;;;;;;1.68;46.48;101254.31;5089229;28;20050;-71
2021/01/17 07:52:47;;;;;;;18.25;8.68;;;;;;;1.70;46.55;101256.94;5086689;28;20078;-73
2021/01/17 07:55:35;;;;;;;18.88;9.30;;;;;;;1.69;46.63;101264.16;5087574;28;20047;-73
2021/01/17 07:58:22;;;;;;;20.02;9.88;;;;;;;1.69;46.56;101277.66;5084180;28;20080;-73
2021/01/17 08:01:48;;;;;;;17.10;8.50;;;;;;;1.71;47.19;101280.28;5111140;27;20048;-72
2021/01/17 08:04:47;;;;;;;16.33;8.63;;;;;;;1.69;46.78;101280.34;5086020;28;20037;-73
2021/01/17 08:07:35;;;;;;;19.48;9.68;;;;;;;1.68;46.32;101277.72;5078316;28;20114;-74
2021/01/17 08:10:36;;;;;;;17.60;9.05;;;;;;;1.70;47.03;101292.88;5075248;28;20032;-73
2021/01/17 08:13:27;;;;;;;20.77;9.77;;;;;;;1.67;46.46;101297.53;5087273;28;20071;-70
2021/01/17 08:16:14;;;;;;;19.70;9.73;;;;;;;1.68;46.75;101299.28;5079466;28;20090;-70
2021/01/17 08:19:03;;;;;;;19.25;8.88;;;;;;;1.70;46.73;101292.00;5085818;28;20396;-71
2021/01/17 08:21:50;;;;;;;19.27;9.27;;;;;;;1.68;46.48;101291.19;5089694;28;20074;-72
2021/01/17 08:24:38;;;;;;;19.55;9.75;;;;;;;1.70;46.69;101300.97;5087210;28;20074;-71
2021/01/17 08:27:29;;;;;;;18.52;9.18;;;;;;;1.71;47.31;101293.78;5089670;28;20040;-70
2021/01/17 08:30:22;;;;;;;15.57;8.32;;;;;;;1.71;46.95;101304.56;5086305;28;20040;-70
2021/01/17 08:33:12;;;;;;;20.83;10.15;;;;;;;1.71;47.21;101308.13;5085713;28;20466;-70
2021/01/17 08:35:59;;;;;;;18.77;9.48;;;;;;;1.72;46.70;101304.47;5090415;28;20753;-70
2021/01/17 08:38:46;;;;;;;20.25;9.57;;;;;;;1.72;46.90;101307.16;5083868;28;20456;-69
2021/01/17 08:41:35;;;;;;;19.23;9.18;;;;;;;1.74;47.07;101317.91;5087124;28;20040;-69
2021/01/17 08:44:32;;;;;;;20.10;9.82;;;;;;;1.78;47.67;101316.84;5089639;28;20129;-70
2021/01/17 08:47:23;;;;;;;21.55;9.88;;;;;;;1.78;47.24;101319.53;5089388;28;20105;-70
2021/01/17 08:50:27;;;;;;;22.42;10.40;;;;;;;1.79;47.43;101324.00;5089580;28;20143;-70
2021/01/17 08:53:16;;;;;;;18.80;8.93;;;;;;;1.77;47.11;101321.34;5089623;28;20496;-70
2021/01/17 08:56:19;;;;;;;19.05;8.98;;;;;;;1.81;47.63;101324.78;5086676;28;20101;-70
2021/01/17 08:59:07;;;;;;;17.35;9.07;;;;;;;1.79;47.15;101332.09;5069694;28;20107;-70
2021/01/17 09:01:59;;;;;;;19.85;9.63;;;;;;;1.82;47.41;101334.63;5079973;28;20390;-70
2021/01/17 09:04:48;;;;;;;16.30;8.40;;;;;;;1.83;46.93;101338.22;5101247;28;20082;-70
2021/01/17 09:07:36;;;;;;;19.50;9.10;;;;;;;1.84;46.88;101339.97;5110335;28;20419;-70
2021/01/17 09:10:32;;;;;;;19.60;10.07;;;;;;;1.86;47.01;101335.38;5098069;28;20134;-70
2021/01/17 09:12:59;;;;;;;18.83;10.13;;;;;;;1.87;46.92;101331.75;5082259;28;20040;-69
2021/01/17 09:15:33;;;;;;;22.02;10.98;;;;;;;1.89;47.32;101340.66;5089093;28;20110;-70
2021/01/17 09:18:24;;;;;;;17.75;9.60;;;;;;;1.87;47.35;101343.41;5083133;28;20242;-70
2021/01/17 09:21:11;;;;;;;18.60;9.63;;;;;;;1.89;47.22;101344.22;5084203;28;20044;-70
2021/01/17 09:24:00;;;;;;;19.17;9.35;;;;;;;1.91;47.36;101352.25;5088637;28;20054;-70
2021/01/17 09:26:50;;;;;;;23.85;10.63;;;;;;;1.93;47.27;101353.06;5089154;28;20048;-70
2021/01/17 09:29:38;;;;;;;18.48;9.68;;;;;;;1.94;47.30;101358.41;5068071;28;20502;-70
2021/01/17 09:32:29;;;;;;;20.30;9.30;;;;;;;1.96;47.05;101352.94;5069569;28;20068;-70
2021/01/17 09:35:17;;;;;;;21.10;10.00;;;;;;;1.97;47.25;101360.09;5085241;28;20052;-69
2021/01/17 09:38:06;;;;;;;19.92;10.30;;;;;;;1.98;47.38;101372.63;5089571;23;20095;-74
2021/01/17 09:40:54;;;;;;;21.77;10.55;;;;;;;1.99;46.92;101371.69;5044942;28;20287;-73
2021/01/17 09:43:43;;;;;;;22.58;10.55;;;;;;;2.00;47.27;101370.75;5048761;28;20126;-74
2021/01/17 09:46:34;;;;;;;21.42;9.98;;;;;;;2.02;47.09;101372.44;5056289;28;20542;-74
2021/01/17 09:49:26;;;;;;;21.23;10.18;;;;;;;2.03;47.72;101379.59;5065812;28;20105;-74
2021/01/17 09:52:16;;;;;;;20.27;9.60;;;;;;;2.03;47.45;101389.50;5068216;28;20048;-74
2021/01/17 09:54:43;;;;;;;21.30;10.18;;;;;;;2.05;47.22;101391.19;5068653;28;20041;-74
2021/01/17 09:57:17;;;;;;;18.70;9.50;;;;;;;2.08;47.56;101398.28;5071472;28;20122;-74
2021/01/17 09:59:46;;;;;;;19.85;9.63;;;;;;;2.08;47.34;101407.25;5053363;28;20063;-73
2021/01/17 10:02:17;;;;;;;22.27;10.60;;;;;;;2.10;47.50;101397.28;5072078;28;20413;-73
2021/01/17 10:04:45;;;;;;;21.20;9.93;;;;;;;2.10;47.32;101404.50;5071058;28;20029;-73
2021/01/17 10:07:17;;;;;;;18.48;10.20;;;;;;;2.14;47.65;101408.81;5072500;28;20047;-74
2021/01/17 10:09:44;;;;;;;20.17;10.80;;;;;;;2.12;47.31;101408.00;5072004;28;20036;-73
2021/01/17 10:12:12;;;;;;;19.30;10.05;;;;;;;2.14;47.25;101414.19;5072156;28;20051;-74
2021/01/17 10:14:41;;;;;;;20.25;10.27;;;;;;;2.16;47.35;101415.03;5053050;28;20398;-74
2021/01/17 10:17:10;;;;;;;20.02;10.18;;;;;;;2.17;47.62;101423.06;5071629;28;20047;-76
2021/01/17 10:19:39;;;;;;;20.60;9.82;;;;;;;2.18;47.59;101427.53;5071410;28;20043;-74
2021/01/17 10:22:11;;;;;;;19.60;9.05;;;;;;;2.20;47.28;101422.06;5071779;28;20128;-75
2021/01/17 10:24:38;;;;;;;20.00;9.23;;;;;;;2.20;47.44;101422.06;5047418;28;20609;-75
2021/01/17 10:27:08;;;;;;;20.30;9.90;;;;;;;2.22;47.58;101427.41;5063356;28;20119;-75
2021/01/17 10:29:36;;;;;;;19.65;9.98;;;;;;;2.21;47.48;101429.22;5069813;28;20043;-76
2021/01/17 10:32:07;;;;;;;22.50;11.15;;;;;;;2.24;47.56;101433.59;5072096;28;20033;-75
2021/01/17 10:34:38;;;;;;;19.13;9.40;;;;;;;2.23;47.61;101440.81;5053618;28;20037;-76
2021/01/17 10:37:07;;;;;;;22.02;10.30;;;;;;;2.24;47.50;101439.88;5071323;28;20052;-76
2021/01/17 10:39:52;;;;;;;18.05;9.13;;;;;;;2.24;47.47;101444.38;5044288;28;20041;-76
2021/01/17 10:42:28;;;;;;;20.77;10.07;;;;;;;2.26;47.81;101440.69;5072019;28;20127;-76
2021/01/17 10:44:59;;;;;;;19.88;9.38;;;;;;;2.26;47.64;101442.50;5066745;28;20162;-76
2021/01/17 10:47:43;;;;;;;18.20;9.18;;;;;;;2.28;48.06;101440.63;5053283;28;20048;-76
2021/01/17 10:50:14;;;;;;;16.73;9.52;;;;;;;2.26;47.67;101439.81;5053191;28;20127;-76
2021/01/17 10:52:47;;;;;;;23.77;11.02;;;;;;;2.26;47.62;101443.38;5070119;28;20050;-76
2021/01/17 10:55:15;;;;;;;19.92;9.93;;;;;;;2.23;47.40;101440.81;5070458;28;20303;-76
2021/01/17 10:57:44;;;;;;;18.92;9.05;;;;;;;2.26;47.60;101442.50;5053538;28;20056;-76
2021/01/17 11:00:12;;;;;;;19.45;9.27;;;;;;;2.25;47.56;101436.22;5072204;28;20468;-76
2021/01/17 11:02:39;;;;;;;19.17;9.40;;;;;;;2.25;47.56;101443.44;5071009;28;20433;-76
2021/01/17 11:05:07;;;;;;;20.83;10.63;;;;;;;2.26;47.38;101450.59;5048188;28;20497;-76
2021/01/17 11:07:35;;;;;;;16.90;8.55;;;;;;;2.26;47.51;101448.78;5070495;28;20049;-76
2021/01/17 11:10:14;;;;;;;19.33;9.77;;;;;;;2.28;47.92;101446.03;5070394;28;20048;-76
2021/01/17 11:12:42;;;;;;;17.70;9.52;;;;;;;2.26;47.63;101439.81;5070784;28;20074;-76
2021/01/17 11:15:19;;;;;;;20.02;9.60;;;;;;;2.31;48.44;101448.56;5070569;28;20570;-74
2021/01/17 11:17:56;;;;;;;19.27;9.27;;;;;;;2.27;47.84;101444.25;5052782;28;20044;-74
2021/01/17 11:20:28;;;;;;;22.85;11.27;;;;;;;2.29;47.89;101448.66;5070776;28;20052;-74
2021/01/17 11:23:04;;;;;;;20.70;9.82;;;;;;;2.28;48.20;101438.81;5048017;28;20375;-73
2021/01/17 11:25:32;;;;;;;18.60;9.45;;;;;;;2.28;47.78;101446.03;5070252;28;20036;-73
2021/01/17 11:28:01;;;;;;;19.15;9.30;;;;;;;2.30;47.60;101449.53;5070572;28;20051;-71
2021/01/17 11:30:30;;;;;;;22.48;10.82;;;;;;;2.30;47.81;101453.09;5070565;28;20076;-71
2021/01/17 11:33:08;;;;;;;22.77;10.60;;;;;;;2.33;48.65;101455.69;5070075;28;20052;-70
2021/01/17 11:35:36;;;;;;;22.48;10.00;;;;;;;2.31;47.95;101454.84;5070847;28;20040;-70
2021/01/17 11:38:04;;;;;;;20.02;10.32;;;;;;;2.32;47.75;101450.34;5070081;28;20079;-70
2021/01/17 11:40:32;;;;;;;19.00;9.77;;;;;;;2.32;47.86;101456.63;5069814;28;20451;-69
2021/01/17 11:43:11;;;;;;;22.50;10.05;;;;;;;2.36;48.62;101455.56;5070307;28;20052;-68
2021/01/17 11:45:41;;;;;;;20.63;10.32;;;;;;;2.34;47.93;101456.56;5070707;28;20059;-68
2021/01/17 11:48:10;;;;;;;23.83;10.85;;;;;;;2.35;47.88;101467.28;5070159;28;20114;-67
2021/01/17 11:50:42;;;;;;;18.42;9.05;;;;;;;2.38;48.51;101455.50;5069664;28;20041;-67
2021/01/17 11:53:10;;;;;;;22.77;10.73;;;;;;;2.36;47.99;101460.06;5069577;28;20033;-66
2021/01/17 11:55:37;;;;;;;20.40;10.57;;;;;;;2.39;48.08;101454.53;5070204;28;20052;-67
2021/01/17 11:58:10;;;;;;;20.17;10.45;;;;;;;2.43;48.48;101462.44;5034909;28;20064;-67
2021/01/17 12:00:52;;;;;;;17.45;8.65;;;;;;;2.45;48.70;101456.97;5070406;28;20045;-66
2021/01/17 12:03:29;;;;;;;24.55;10.60;;;;;;;2.44;48.10;101464.22;5069948;28;20048;-66
2021/01/17 12:05:58;;;;;;;18.30;8.82;;;;;;;2.44;48.16;101466.91;5070352;28;20405;-66
2021/01/17 12:08:26;;;;;;;19.48;9.60;;;;;;;2.47;47.96;101471.28;5069126;28;20043;-66
2021/01/17 12:10:54;;;;;;;21.70;10.45;;;;;;;2.47;48.20;101477.56;5069645;28;20041;-66
2021/01/17 12:13:21;;;;;;;14.45;7.50;;;;;;;2.47;48.22;101479.38;5068591;28;20044;-66
2021/01/17 12:15:50;;;;;;;17.05;8.32;;;;;;;2.47;48.03;101477.56;5069980;28;20044;-67
2021/01/17 12:18:17;;;;;;;18.73;8.98;;;;;;;2.47;47.99;101477.56;5069236;28;20051;-66
2021/01/17 12:20:45;;;;;;;17.95;8.50;;;;;;;2.48;48.11;101481.13;5084924;28;20044;-66